createdAt,value
2019-04-04T00:02:23.326Z,7.20
2019-04-04T00:04:52.483Z,7.20
2019-04-04T00:07:21.756Z,7.10
2019-04-04T00:09:50.599Z,7.20
2019-04-04T00:12:19.462Z,7.10
2019-04-04T00:14:48.311Z,7.20
2019-04-04T00:17:17.169Z,7.20
2019-04-04T00:19:46.009Z,7.20
2019-04-04T00:22:15.607Z,7.10
2019-04-04T00:24:44.459Z,7.20
2019-04-04T00:27:13.804Z,7.10
2019-04-04T00:29:42.142Z,7.10
2019-04-04T00:32:10.985Z,7.00
2019-04-04T00:34:39.822Z,7.00
2019-04-04T00:37:08.654Z,6.90
2019-04-04T00:39:39.881Z,6.90
2019-04-04T00:42:07.063Z,6.90
2019-04-04T00:44:35.907Z,6.90
2019-04-04T00:47:04.733Z,6.90
2019-04-04T00:49:35.387Z,6.80
2019-04-04T00:52:02.416Z,6.80
2019-04-04T00:54:31.248Z,6.80
2019-04-04T00:57:00.090Z,6.90
2019-04-04T00:59:29.667Z,6.80
2019-04-04T01:01:58.510Z,6.80
2019-04-04T01:04:27.364Z,6.90
2019-04-04T01:06:56.940Z,6.80
2019-04-04T01:09:25.798Z,6.80
2019-04-04T01:11:54.631Z,6.80
2019-04-04T01:14:23.541Z,6.90
2019-04-04T01:16:52.346Z,6.90
2019-04-04T01:19:21.183Z,6.80
2019-04-04T01:21:53.032Z,6.80
2019-04-04T01:24:18.844Z,6.80
2019-04-04T01:26:47.685Z,6.90
2019-04-04T01:29:17.333Z,6.80
2019-04-04T01:31:46.615Z,7.00
2019-04-04T01:34:14.945Z,6.90
2019-04-04T01:36:43.826Z,6.90
2019-04-04T01:39:12.653Z,6.80
2019-04-04T01:41:41.524Z,6.80
2019-04-04T01:44:11.258Z,6.80
2019-04-04T01:46:39.904Z,6.80
2019-04-04T01:49:09.474Z,6.80
2019-04-04T01:51:38.311Z,6.90
2019-04-04T01:54:07.887Z,6.90
2019-04-04T01:56:37.142Z,6.90
2019-04-04T01:59:05.553Z,6.80
2019-04-04T02:01:34.393Z,6.80
2019-04-04T02:04:03.966Z,6.80
2019-04-04T02:06:32.805Z,6.90
2019-04-04T02:09:02.857Z,6.90
2019-04-04T02:11:30.455Z,6.80
2019-04-04T02:13:59.311Z,6.80
2019-04-04T02:16:28.139Z,6.80
2019-04-04T02:18:57.001Z,6.80
2019-04-04T02:21:28.440Z,6.90
2019-04-04T02:23:54.685Z,6.90
2019-04-04T02:26:23.527Z,6.90
2019-04-04T02:28:52.349Z,6.90
2019-04-04T02:31:21.899Z,6.90
2019-04-04T02:33:50.758Z,6.80
2019-04-04T02:36:19.596Z,6.80
2019-04-04T02:39:00.782Z,6.80
2019-04-04T02:41:29.213Z,6.80
2019-04-04T02:43:59.654Z,6.80
2019-04-04T02:46:26.911Z,6.80
2019-04-04T02:48:57.108Z,6.70
2019-04-04T02:51:25.398Z,6.80
2019-04-04T02:53:54.189Z,6.80
2019-04-04T02:56:23.787Z,6.80
2019-04-04T02:58:52.608Z,6.80
2019-04-04T03:01:21.440Z,6.80
2019-04-04T03:03:50.277Z,6.80
2019-04-04T03:06:24.052Z,6.90
2019-04-04T03:08:49.446Z,6.80
2019-04-04T03:11:21.270Z,6.80
2019-04-04T03:13:47.164Z,6.80
2019-04-04T03:16:15.969Z,6.80
2019-04-04T03:18:44.834Z,6.80
2019-04-04T03:21:13.648Z,6.80
2019-04-04T03:23:42.479Z,6.70
2019-04-04T03:26:11.332Z,6.70
2019-04-04T03:28:40.240Z,6.70
2019-04-04T03:31:09.057Z,6.60
2019-04-04T03:33:37.946Z,6.60
2019-04-04T03:36:06.735Z,6.60
2019-04-04T03:38:35.575Z,6.60
2019-04-04T03:41:04.426Z,6.70
2019-04-04T03:43:33.252Z,6.70
2019-04-04T03:46:02.137Z,6.70
2019-04-04T03:48:30.951Z,6.80
2019-04-04T03:51:03.477Z,6.80
2019-04-04T03:53:29.385Z,6.80
2019-04-04T03:56:01.245Z,6.80
2019-04-04T03:58:27.854Z,6.80
2019-04-04T04:00:55.919Z,6.70
2019-04-04T04:03:24.777Z,6.70
2019-04-04T04:05:53.599Z,6.70
2019-04-04T04:08:22.458Z,6.80
2019-04-04T04:10:51.302Z,6.70
2019-04-04T04:13:20.132Z,6.70
2019-04-04T04:15:48.989Z,6.70
2019-04-04T04:18:21.241Z,6.70
2019-04-04T04:20:46.669Z,6.70
2019-04-04T04:23:15.505Z,6.60
2019-04-04T04:25:44.353Z,6.60
2019-04-04T04:28:13.231Z,6.60
2019-04-04T04:30:42.064Z,6.60
2019-04-04T04:35:23.646Z,6.70
2019-04-04T04:37:53.691Z,6.70
2019-04-04T04:40:21.312Z,6.70
2019-04-04T04:42:50.143Z,6.70
2019-04-04T04:45:18.965Z,6.70
2019-04-04T04:47:47.827Z,6.70
2019-04-04T04:50:16.661Z,6.80
2019-04-04T04:52:47.439Z,6.80
2019-04-04T04:55:14.324Z,6.80
2019-04-04T04:57:43.169Z,6.80
2019-04-04T05:00:12.058Z,6.90
2019-04-04T05:02:40.833Z,6.90
2019-04-04T05:05:09.722Z,6.90
2019-04-04T05:07:39.302Z,6.80
2019-04-04T05:10:08.163Z,6.90
2019-04-04T05:12:36.999Z,6.80
2019-04-04T05:15:05.843Z,6.80
2019-04-04T05:17:34.673Z,6.70
2019-04-04T05:20:03.506Z,6.80
2019-04-04T05:22:32.342Z,6.80
2019-04-04T05:25:07.774Z,6.80
2019-04-04T05:27:30.019Z,6.80
2019-04-04T05:29:58.862Z,6.80
2019-04-04T05:32:27.695Z,6.70
2019-04-04T05:34:56.543Z,6.70
2019-04-04T05:37:27.482Z,6.80
2019-04-04T05:39:55.374Z,6.80
2019-04-04T05:42:23.035Z,6.60
2019-04-04T05:44:51.867Z,6.60
2019-04-04T05:47:22.884Z,6.50
2019-04-04T05:49:50.308Z,6.60
2019-04-04T05:52:19.127Z,6.80
2019-04-04T05:54:47.983Z,6.80
2019-04-04T05:57:17.939Z,6.80
2019-04-04T05:59:45.647Z,6.80
2019-04-04T06:02:14.503Z,6.80
2019-04-04T06:04:44.053Z,6.80
2019-04-04T06:07:12.907Z,6.70
2019-04-04T06:09:42.045Z,6.80
2019-04-04T06:12:10.584Z,6.80
2019-04-04T06:14:39.411Z,6.80
2019-04-04T06:17:08.244Z,6.90
2019-04-04T06:19:37.094Z,6.90
2019-04-04T06:22:05.933Z,6.80
2019-04-04T06:24:34.752Z,6.70
2019-04-04T06:27:03.591Z,6.70
2019-04-04T06:29:32.439Z,6.50
2019-04-04T06:32:01.270Z,6.50
2019-04-04T06:34:30.106Z,6.60
2019-04-04T06:36:58.949Z,6.50
2019-04-04T06:39:27.775Z,6.50
2019-04-04T06:41:56.605Z,6.50
2019-04-04T06:44:26.195Z,6.50
2019-04-04T06:46:55.059Z,6.60
2019-04-04T06:49:23.892Z,6.60
2019-04-04T06:51:52.729Z,6.60
2019-04-04T06:54:25.217Z,6.50
2019-04-04T06:56:51.150Z,6.40
2019-04-04T06:59:19.990Z,6.50
2019-04-04T07:01:50.025Z,6.40
2019-04-04T07:06:47.846Z,6.30
2019-04-04T07:09:19.046Z,6.40
2019-04-04T07:11:46.361Z,6.40
2019-04-04T07:14:15.152Z,6.40
2019-04-04T07:16:44.756Z,6.30
2019-04-04T07:19:15.024Z,6.40
2019-04-04T07:21:42.430Z,6.20
2019-04-04T07:24:11.283Z,6.20
2019-04-04T07:26:40.117Z,6.20
2019-04-04T07:29:08.956Z,6.10
2019-04-04T07:31:38.285Z,6.10
2019-04-04T07:34:06.656Z,6.10
2019-04-04T07:36:35.462Z,6.00
2019-04-04T07:39:05.043Z,6.00
2019-04-04T07:41:33.927Z,6.00
2019-04-04T07:44:02.735Z,5.90
2019-04-04T07:46:31.587Z,5.90
2019-04-04T07:49:00.419Z,5.90
2019-04-04T07:51:30.267Z,5.90
2019-04-04T07:53:58.837Z,6.00
2019-04-04T07:56:27.682Z,5.90
2019-04-04T07:58:56.518Z,5.90
2019-04-04T08:01:25.371Z,5.90
2019-04-04T08:03:54.195Z,5.80
2019-04-04T08:06:23.043Z,5.70
2019-04-04T08:08:51.883Z,5.60
2019-04-04T08:11:20.716Z,5.60
2019-04-04T08:13:49.543Z,5.50
2019-04-04T08:16:19.124Z,5.50
2019-04-04T08:18:47.966Z,5.50
2019-04-04T08:21:16.810Z,5.60
2019-04-04T08:23:45.657Z,5.40
2019-04-04T08:26:14.502Z,5.40
2019-04-04T08:28:44.078Z,5.40
2019-04-04T08:31:12.907Z,5.40
2019-04-04T08:33:41.743Z,5.30
2019-04-04T08:36:11.722Z,5.30
2019-04-04T08:38:39.396Z,5.20
2019-04-04T08:41:08.233Z,5.20
2019-04-04T08:43:37.108Z,5.30
2019-04-04T08:46:05.937Z,5.20
2019-04-04T08:48:35.504Z,5.10
2019-04-04T08:51:04.337Z,5.10
2019-04-04T08:53:39.659Z,5.20
2019-04-04T08:56:02.029Z,5.30
2019-04-04T08:58:30.890Z,5.20
2019-04-04T09:00:59.700Z,5.20
2019-04-04T09:03:28.542Z,5.20
2019-04-04T09:05:58.107Z,5.00
2019-04-04T09:08:26.939Z,5.10
2019-04-04T09:10:55.763Z,5.10
2019-04-04T09:13:24.597Z,5.10
2019-04-04T09:15:53.430Z,5.10
2019-04-04T09:18:22.272Z,5.20
2019-04-04T09:20:51.103Z,5.20
2019-04-04T09:23:20.691Z,5.20
2019-04-04T09:25:49.540Z,5.10
2019-04-04T09:28:19.088Z,5.10
2019-04-04T09:30:47.904Z,5.10
2019-04-04T09:33:16.746Z,5.20
2019-04-04T09:35:45.585Z,5.20
2019-04-04T09:38:15.169Z,5.30
2019-04-04T09:40:44.748Z,5.20
2019-04-04T09:43:13.617Z,5.20
2019-04-04T09:45:42.442Z,5.30
2019-04-04T09:48:11.281Z,5.30
2019-04-04T09:50:40.139Z,5.40
2019-04-04T09:53:08.979Z,5.40
2019-04-04T09:55:37.803Z,5.50
2019-04-04T09:58:06.633Z,5.60
2019-04-04T10:00:36.505Z,5.60
2019-04-04T10:03:05.678Z,5.50
2019-04-04T10:05:34.161Z,5.50
2019-04-04T10:08:02.984Z,5.50
2019-04-04T10:10:31.818Z,5.60
2019-04-04T10:13:00.650Z,5.70
2019-04-04T10:15:29.480Z,5.60
2019-04-04T10:17:58.329Z,5.80
2019-04-04T10:20:27.175Z,5.70
2019-04-04T10:22:56.007Z,5.80
2019-04-04T10:25:24.857Z,5.90
2019-04-04T10:27:53.690Z,6.00
2019-04-04T10:30:23.280Z,6.00
2019-04-04T10:32:52.125Z,6.10
2019-04-04T10:35:20.976Z,6.00
2019-04-04T10:37:50.551Z,5.90
2019-04-04T10:40:19.396Z,5.90
2019-04-04T10:42:48.218Z,5.90
2019-04-04T10:45:17.044Z,5.90
2019-04-04T10:47:46.615Z,5.80
2019-04-04T10:50:15.486Z,5.90
2019-04-04T10:52:45.024Z,5.90
2019-04-04T10:55:13.871Z,5.90
2019-04-04T10:57:42.699Z,5.80
2019-04-04T11:00:11.530Z,5.80
2019-04-04T11:02:40.372Z,5.80
2019-04-04T11:05:09.195Z,5.90
2019-04-04T11:07:38.797Z,5.90
2019-04-04T11:10:08.373Z,5.90
2019-04-04T11:12:37.191Z,5.90
2019-04-04T11:15:06.793Z,5.90
2019-04-04T11:17:36.378Z,6.00
2019-04-04T11:20:06.013Z,6.00
2019-04-04T11:22:35.608Z,6.00
2019-04-04T11:25:05.308Z,6.10
2019-04-04T11:27:36.072Z,6.10
2019-04-04T11:30:05.809Z,6.10
2019-04-04T11:32:35.393Z,6.10
2019-04-04T11:35:04.301Z,6.20
2019-04-04T11:37:33.878Z,6.20
2019-04-04T11:40:02.722Z,6.30
2019-04-04T11:42:31.563Z,6.30
2019-04-04T11:45:00.390Z,6.30
2019-04-04T11:47:29.237Z,6.30
2019-04-04T11:49:58.058Z,6.20
2019-04-04T11:52:27.654Z,6.20
2019-04-04T11:54:56.475Z,6.20
2019-04-04T11:57:25.300Z,6.20
2019-04-04T11:59:54.121Z,6.20
2019-04-04T12:02:23.699Z,6.20
2019-04-04T12:04:52.528Z,6.20
2019-04-04T12:07:22.117Z,6.20
2019-04-04T12:09:50.953Z,6.20
2019-04-04T12:12:19.794Z,6.20
2019-04-04T12:14:48.636Z,6.20
2019-04-04T12:17:17.462Z,6.30
2019-04-04T12:19:46.295Z,6.50
2019-04-04T12:22:15.122Z,6.60
2019-04-04T12:24:43.960Z,6.60
2019-04-04T12:27:13.542Z,6.50
2019-04-04T12:29:42.370Z,6.50
2019-04-04T12:32:11.203Z,6.60
2019-04-04T12:34:40.046Z,6.60
2019-04-04T12:37:08.904Z,6.50
2019-04-04T12:39:37.780Z,6.60
2019-04-04T12:42:06.576Z,6.70
2019-04-04T12:44:36.148Z,6.80
2019-04-04T12:47:04.975Z,6.80
2019-04-04T12:49:33.826Z,6.80
2019-04-04T12:52:02.673Z,6.90
2019-04-04T12:54:32.264Z,6.80
2019-04-04T12:57:01.156Z,6.80
2019-04-04T12:59:29.958Z,6.90
2019-04-04T13:01:59.558Z,6.90
2019-04-04T13:04:31.937Z,6.80
2019-04-04T13:07:10.600Z,6.90
2019-04-04T13:09:39.442Z,6.80
2019-04-04T13:12:08.278Z,6.80
2019-04-04T13:14:37.112Z,6.90
2019-04-04T13:17:05.963Z,6.80
2019-04-04T13:19:34.786Z,7.00
2019-04-04T13:22:03.620Z,6.90
2019-04-04T13:24:32.462Z,7.00
2019-04-04T13:27:01.286Z,7.00
2019-04-04T13:29:30.124Z,6.80
2019-04-04T13:31:58.957Z,6.90
2019-04-04T13:34:27.844Z,6.90
2019-04-04T13:36:56.645Z,7.00
2019-04-04T13:39:25.484Z,7.10
2019-04-04T13:44:24.130Z,7.20
2019-04-04T13:46:52.605Z,7.30
2019-04-04T13:49:21.432Z,7.40
2019-04-04T13:51:50.862Z,7.30
2019-04-04T13:54:19.895Z,7.40
2019-04-04T13:56:48.699Z,7.50
2019-04-04T13:59:17.532Z,7.50
2019-04-04T14:04:15.805Z,7.50
2019-04-04T14:06:44.640Z,7.50
2019-04-04T14:09:13.477Z,7.60
2019-04-04T14:11:42.484Z,7.70
2019-04-04T14:16:40.782Z,7.70
2019-04-04T14:19:09.645Z,7.90
2019-04-04T14:21:38.470Z,7.90
2019-04-04T14:24:13.993Z,8.20
2019-04-04T14:26:36.924Z,8.20
2019-04-04T14:29:05.767Z,8.10
2019-04-04T14:31:34.613Z,8.10
2019-04-04T14:34:03.466Z,8.10
2019-04-04T14:36:32.298Z,7.90
2019-04-04T14:39:01.130Z,7.90
2019-04-04T14:41:30.701Z,7.80
2019-04-04T14:44:00.687Z,8.00
2019-04-04T14:46:28.395Z,8.00
2019-04-04T14:48:57.224Z,8.00
2019-04-04T14:51:26.055Z,8.00
2019-04-04T14:53:55.930Z,7.90
2019-04-04T14:56:23.736Z,7.80
2019-04-04T15:01:22.745Z,7.70
2019-04-04T15:03:51.596Z,7.70
2019-04-04T15:06:20.439Z,7.70
2019-04-04T15:11:27.739Z,8.10
2019-04-04T15:13:56.601Z,8.00
2019-04-04T15:16:25.468Z,8.20
2019-04-04T15:18:54.310Z,8.50
2019-04-04T15:21:23.165Z,8.40
2019-04-04T15:23:52.046Z,8.40
2019-04-04T15:26:21.599Z,8.40
2019-04-04T15:28:51.182Z,8.30
2019-04-04T15:31:20.019Z,8.00
2019-04-04T15:33:50.485Z,7.90
2019-04-04T15:36:17.738Z,7.80
2019-04-04T15:38:46.546Z,7.80
2019-04-04T15:41:15.391Z,7.90
2019-04-04T15:43:44.240Z,7.80
2019-04-04T15:46:13.073Z,7.70
2019-04-04T15:48:41.904Z,7.60
2019-04-04T15:53:40.190Z,7.60
2019-04-04T15:56:09.038Z,7.60
2019-04-04T15:58:37.869Z,7.60
2019-04-04T16:01:06.739Z,7.60
2019-04-04T16:03:35.570Z,7.50
2019-04-04T16:06:05.129Z,7.30
2019-04-04T16:08:33.976Z,7.40
2019-04-04T16:11:02.837Z,7.50
2019-04-04T16:13:31.709Z,7.40
2019-04-04T16:16:00.517Z,7.30
2019-04-04T16:18:29.368Z,7.30
2019-04-04T16:20:58.202Z,7.20
2019-04-04T16:23:27.032Z,7.30
2019-04-04T16:25:55.949Z,7.30
2019-04-04T16:28:24.778Z,7.30
2019-04-04T16:30:53.602Z,7.20
2019-04-04T16:33:22.460Z,7.20
2019-04-04T16:35:52.041Z,7.20
2019-04-04T16:40:51.047Z,7.20
2019-04-04T16:43:19.964Z,7.30
2019-04-04T16:45:48.785Z,7.30
2019-04-04T16:48:17.630Z,7.40
2019-04-04T16:50:46.538Z,7.40
2019-04-04T16:53:15.315Z,7.50
2019-04-04T16:55:44.902Z,7.40
2019-04-04T16:58:13.736Z,7.60
2019-04-04T17:00:42.590Z,7.50
2019-04-04T17:03:11.473Z,7.40
2019-04-04T17:05:40.309Z,7.40
2019-04-04T17:08:09.148Z,7.40
2019-04-04T17:13:07.409Z,7.40
2019-04-04T17:15:36.264Z,7.50
2019-04-04T17:18:05.098Z,7.50
2019-04-04T17:20:33.952Z,7.50
2019-04-04T17:23:02.786Z,7.50
2019-04-04T17:25:31.682Z,7.40
2019-04-04T17:28:00.494Z,7.30
2019-04-04T17:30:29.364Z,7.20
2019-04-04T17:32:58.191Z,7.30
2019-04-04T17:35:28.148Z,7.40
2019-04-04T17:37:56.652Z,7.40
2019-04-04T17:40:32.240Z,7.30
2019-04-04T17:43:01.296Z,7.30
2019-04-04T17:45:30.445Z,7.30
2019-04-04T17:47:59.332Z,7.30
2019-04-04T17:50:28.133Z,7.30
2019-04-04T17:55:27.629Z,7.30
2019-04-04T17:57:55.988Z,7.30
2019-04-04T18:00:24.848Z,7.30
2019-04-04T18:02:53.696Z,7.30
2019-04-04T18:05:22.544Z,7.30
2019-04-04T18:07:51.382Z,7.30
2019-04-04T18:10:20.207Z,7.30
2019-04-04T18:12:49.819Z,7.20
2019-04-04T18:15:18.660Z,7.30
2019-04-04T18:17:47.508Z,7.30
2019-04-04T18:20:16.426Z,7.30
2019-04-04T18:22:45.993Z,7.20
2019-04-04T18:25:14.749Z,7.30
2019-04-04T18:27:43.687Z,7.20
2019-04-04T18:30:12.517Z,7.40
2019-04-04T18:32:41.366Z,7.30
2019-04-04T18:35:10.684Z,7.30
2019-04-04T18:37:39.346Z,7.20
2019-04-04T18:40:07.900Z,7.20
2019-04-04T18:42:36.757Z,7.30
2019-04-04T18:45:05.620Z,7.30
2019-04-04T18:47:34.459Z,7.30
2019-04-04T18:50:03.290Z,7.30
2019-04-04T18:52:32.169Z,7.30
2019-04-04T18:55:00.986Z,7.30
2019-04-04T18:57:29.842Z,7.30
2019-04-04T18:59:58.675Z,7.20
2019-04-04T19:02:27.514Z,7.20
2019-04-04T19:04:57.110Z,7.20
2019-04-04T19:07:38.468Z,7.10
2019-04-04T19:09:55.549Z,7.20
2019-04-04T19:12:24.406Z,7.20
2019-04-04T19:14:54.000Z,7.10
2019-04-04T19:17:22.866Z,7.10
2019-04-04T19:19:51.691Z,7.20
2019-04-04T19:22:20.547Z,7.20
2019-04-04T19:24:49.385Z,7.20
2019-04-04T19:27:18.221Z,7.20
2019-04-04T19:29:47.067Z,7.10
2019-04-04T19:32:15.945Z,7.10
2019-04-04T19:34:44.774Z,7.10
2019-04-04T19:37:13.611Z,7.10
2019-04-04T19:39:43.207Z,7.00
2019-04-04T19:42:12.058Z,7.00
2019-04-04T19:44:52.372Z,7.10
2019-04-04T19:47:09.792Z,7.00
2019-04-04T19:49:39.433Z,6.80
2019-04-04T19:52:08.263Z,6.90
2019-04-04T19:54:37.096Z,7.00
2019-04-04T19:57:05.935Z,7.00
2019-04-04T19:59:34.773Z,7.00
2019-04-04T20:02:03.622Z,7.00
2019-04-04T20:04:32.493Z,7.00
2019-04-04T20:07:03.550Z,7.00
2019-04-04T20:09:30.900Z,7.00
2019-04-04T20:12:00.465Z,7.00
2019-04-04T20:14:29.297Z,7.00
2019-04-04T20:16:58.152Z,7.00
2019-04-04T20:19:26.985Z,6.90
2019-04-04T20:21:56.664Z,6.90
2019-04-04T20:24:25.393Z,7.00
2019-04-04T20:26:55.017Z,6.90
2019-04-04T20:29:23.808Z,6.90
2019-04-04T20:31:52.670Z,6.80
2019-04-04T20:34:22.264Z,6.80
2019-04-04T20:36:51.095Z,6.90
2019-04-04T20:39:19.979Z,6.80
2019-04-04T20:41:48.803Z,6.70
2019-04-04T20:44:17.661Z,6.70
2019-04-04T20:46:46.512Z,6.70
2019-04-04T20:49:15.357Z,6.70
2019-04-04T20:51:44.201Z,6.70
2019-04-04T20:54:13.043Z,6.70
2019-04-04T20:56:41.882Z,6.70
2019-04-04T20:59:11.463Z,6.70
2019-04-04T21:04:09.779Z,6.60
2019-04-04T21:06:39.369Z,6.60
2019-04-04T21:09:08.213Z,6.60
2019-04-04T21:11:37.057Z,6.50
2019-04-04T21:14:06.653Z,6.40
2019-04-04T21:16:35.499Z,6.60
2019-04-04T21:19:04.349Z,6.60
2019-04-04T21:21:33.921Z,6.60
2019-04-04T21:24:02.804Z,6.70
2019-04-04T21:26:31.645Z,6.70
2019-04-04T21:29:01.212Z,6.60
2019-04-04T21:31:30.062Z,6.60
2019-04-04T21:33:58.952Z,6.50
2019-04-04T21:36:28.508Z,6.50
2019-04-04T21:38:57.374Z,6.50
2019-04-04T21:41:26.227Z,6.50
2019-04-04T21:43:55.075Z,6.50
2019-04-04T21:46:23.935Z,6.50
2019-04-04T21:48:52.772Z,6.40
2019-04-04T21:51:22.345Z,6.40
2019-04-04T21:53:51.169Z,6.50
2019-04-04T21:56:20.018Z,6.40
2019-04-04T21:58:48.858Z,6.30
2019-04-04T22:01:17.711Z,6.30
2019-04-04T22:03:47.301Z,6.20
2019-04-04T22:06:16.148Z,6.30
2019-04-04T22:08:44.981Z,6.40
2019-04-04T22:11:13.799Z,6.40
2019-04-04T22:13:43.395Z,6.40
2019-04-04T22:18:42.390Z,6.30
2019-04-04T22:21:11.219Z,6.40
2019-04-04T22:23:40.072Z,6.40
2019-04-04T22:26:08.917Z,6.40
2019-04-04T22:28:37.768Z,6.40
2019-04-04T22:31:07.400Z,6.30
2019-04-04T22:33:36.244Z,6.40
2019-04-04T22:36:05.077Z,6.40
2019-04-04T22:38:33.908Z,6.40
2019-04-04T22:41:02.761Z,6.40
2019-04-04T22:43:31.587Z,6.40
2019-04-04T22:46:00.429Z,6.40
2019-04-04T22:48:29.287Z,6.40
2019-04-04T22:50:58.125Z,6.40
2019-04-04T22:53:26.976Z,6.40
2019-04-04T22:55:55.819Z,6.40
2019-04-04T22:58:28.597Z,6.30
2019-04-04T23:00:53.495Z,6.30
2019-04-04T23:03:22.391Z,6.30
2019-04-04T23:05:51.194Z,6.30
2019-04-04T23:08:20.037Z,6.30
2019-04-04T23:10:48.869Z,6.20
2019-04-04T23:13:17.713Z,6.20
2019-04-04T23:15:46.547Z,6.20
2019-04-04T23:18:15.415Z,6.20
2019-04-04T23:20:44.216Z,6.30
2019-04-04T23:23:13.069Z,6.30
2019-04-04T23:25:41.895Z,6.30
2019-04-04T23:28:10.774Z,6.20
2019-04-04T23:30:39.607Z,6.20
2019-04-04T23:33:08.437Z,6.20
2019-04-04T23:35:37.270Z,6.20
2019-04-04T23:38:06.109Z,6.20
2019-04-04T23:40:34.955Z,6.20
2019-04-04T23:43:03.800Z,6.20
2019-04-04T23:45:32.630Z,6.30
2019-04-04T23:48:01.475Z,6.20
2019-04-04T23:50:30.323Z,6.30
2019-04-04T23:52:59.159Z,6.30
2019-04-04T23:55:27.999Z,6.30
2019-04-04T23:57:56.836Z,6.20
